Time;durP1;ratioP1;P1;durP2;ratioP2;P2;SDS_P1;SDS_P2;PMS_P1;PMS_P2;Temp;Humidity;BMP_temperature;BMP_pressure;BME280_temperature;BME280_humidity;BME280_pressure;Samples;Min_cycle;Max_cycle;Signal;HPM_P1;HPM_P2
2022/03/24 00:01:05;;;;;;;0.10;0.10;;;;;;;;;;5015414;28;20132;-94
2022/03/24 00:03:31;;;;;;;0.10;0.10;;;;;;;;;;5015767;28;20046;-95
2022/03/24 00:05:57;;;;;;;0.10;0.10;;;;;;;;;;5016036;28;20049;-93
2022/03/24 00:08:23;;;;;;;0.10;0.10;;;;;;;;;;5015692;28;20524;-95
2022/03/24 00:10:50;;;;;;;0.10;0.10;;;;;;;;;;5015514;28;20050;-95
2022/03/24 00:13:16;;;;;;;0.10;0.10;;;;;;;;;;5015366;28;20507;-94
2022/03/24 00:15:42;;;;;;;0.10;0.10;;;;;;;;;;5015116;28;20046;-95
2022/03/24 00:18:10;;;;;;;0.28;0.28;;;;;;;;;;5015696;28;20064;-95
2022/03/24 00:20:59;;;;;;;0.10;0.10;;;;;;;;;;5025962;28;20029;-96
2022/03/24 00:23:25;;;;;;;0.10;0.10;;;;;;;;;;5018068;28;20054;-94
2022/03/24 00:25:51;;;;;;;0.10;0.10;;;;;;;;;;5015201;28;20041;-96
2022/03/24 00:28:17;;;;;;;0.13;0.13;;;;;;;;;;5014834;28;20173;-95
2022/03/24 00:30:43;;;;;;;0.10;0.10;;;;;;;;;;5015526;28;20042;-96
2022/03/24 00:33:09;;;;;;;0.10;0.10;;;;;;;;;;5015317;28;20042;-96
2022/03/24 00:35:35;;;;;;;0.10;0.10;;;;;;;;;;5015048;28;20136;-94
2022/03/24 00:38:01;;;;;;;0.10;0.10;;;;;;;;;;5015425;28;20081;-96
2022/03/24 00:40:27;;;;;;;0.10;0.10;;;;;;;;;;5014883;28;20041;-94
2022/03/24 00:42:53;;;;;;;0.10;0.10;;;;;;;;;;5014152;28;20057;-96
2022/03/24 00:45:20;;;;;;;0.10;0.10;;;;;;;;;;5015111;28;20298;-94
2022/03/24 00:47:46;;;;;;;0.10;0.10;;;;;;;;;;5014370;28;20045;-94
2022/03/24 00:50:12;;;;;;;0.10;0.10;;;;;;;;;;5015205;28;20104;-95
2022/03/24 00:52:41;;;;;;;0.10;0.10;;;;;;;;;;5015195;28;20042;-96
2022/03/24 00:55:12;;;;;;;0.10;0.10;;;;;;;;;;5014757;28;20443;-94
2022/03/24 00:57:38;;;;;;;0.10;0.10;;;;;;;;;;5014601;28;20041;-94
2022/03/24 01:00:04;;;;;;;0.10;0.10;;;;;;;;;;5014338;28;20052;-93
2022/03/24 01:02:30;;;;;;;0.10;0.10;;;;;;;;;;5014426;28;20053;-94
2022/03/24 01:04:56;;;;;;;0.10;0.10;;;;;;;;;;5014301;28;20038;-95
2022/03/24 01:07:23;;;;;;;0.20;0.20;;;;;;;;;;5014485;28;20049;-92
2022/03/24 01:09:49;;;;;;;0.20;0.20;;;;;;;;;;5014279;28;20088;-94
2022/03/24 01:12:16;;;;;;;0.10;0.10;;;;;;;;;;5014307;28;20046;-92
2022/03/24 01:14:42;;;;;;;0.73;0.25;;;;;;;;;;5014428;28;20370;-94
2022/03/24 01:17:10;;;;;;;0.10;0.10;;;;;;;;;;5013842;28;20048;-93
2022/03/24 01:19:37;;;;;;;0.10;0.10;;;;;;;;;;5014203;28;20046;-94
2022/03/24 01:22:03;;;;;;;0.10;0.10;;;;;;;;;;5013923;28;20053;-93
2022/03/24 01:24:29;;;;;;;0.00;0.00;;;;;;;;;;5013255;28;20041;-93
2022/03/24 01:26:55;;;;;;;0.10;0.10;;;;;;;;;;5013784;28;20095;-89
2022/03/24 01:29:22;;;;;;;0.10;0.10;;;;;;;;;;5013726;28;20048;-92
2022/03/24 01:31:48;;;;;;;0.10;0.10;;;;;;;;;;5013661;28;20492;-93
2022/03/24 01:34:16;;;;;;;0.63;0.55;;;;;;;;;;5013667;28;20157;-94
2022/03/24 01:36:42;;;;;;;0.10;0.10;;;;;;;;;;5013543;28;20443;-93
2022/03/24 01:39:08;;;;;;;0.10;0.10;;;;;;;;;;5013832;28;20042;-92
2022/03/24 01:41:35;;;;;;;0.10;0.10;;;;;;;;;;5013650;28;20092;-91
2022/03/24 01:44:01;;;;;;;0.10;0.10;;;;;;;;;;5013960;28;20080;-93
2022/03/24 01:46:26;;;;;;;0.10;0.10;;;;;;;;;;5013652;28;20045;-93
2022/03/24 01:48:52;;;;;;;0.30;0.30;;;;;;;;;;5013349;28;20200;-93
2022/03/24 01:51:18;;;;;;;0.30;0.30;;;;;;;;;;5013343;28;20049;-93
2022/03/24 01:53:44;;;;;;;0.08;0.08;;;;;;;;;;5013495;28;20038;-93
2022/03/24 01:56:11;;;;;;;0.03;0.03;;;;;;;;;;5013668;28;20443;-94
2022/03/24 01:58:38;;;;;;;0.10;0.10;;;;;;;;;;5013481;28;20036;-94
2022/03/24 02:01:26;;;;;;;0.10;0.10;;;;;;;;;;5013462;28;20458;-94
2022/03/24 02:03:52;;;;;;;0.08;0.08;;;;;;;;;;5013753;28;20096;-96
2022/03/24 02:06:18;;;;;;;0.10;0.05;;;;;;;;;;5013886;28;20489;-95
2022/03/24 02:08:44;;;;;;;0.10;0.10;;;;;;;;;;5013567;28;20045;-93
2022/03/24 02:11:10;;;;;;;0.08;0.08;;;;;;;;;;5012057;28;20045;-93
2022/03/24 02:13:36;;;;;;;0.10;0.10;;;;;;;;;;5013326;28;20477;-93
2022/03/24 02:16:02;;;;;;;0.10;0.10;;;;;;;;;;5013260;28;20033;-93
2022/03/24 02:18:31;;;;;;;0.00;0.00;;;;;;;;;;5013494;28;20046;-94
2022/03/24 02:20:57;;;;;;;0.10;0.10;;;;;;;;;;5013531;28;20049;-93
2022/03/24 02:23:26;;;;;;;0.10;0.10;;;;;;;;;;5013021;28;20413;-94
2022/03/24 02:25:52;;;;;;;0.08;0.08;;;;;;;;;;5013134;28;20129;-93
2022/03/24 02:28:18;;;;;;;0.10;0.10;;;;;;;;;;5013158;28;20069;-94
2022/03/24 02:30:47;;;;;;;0.10;0.10;;;;;;;;;;5012881;28;20038;-91
2022/03/24 02:33:13;;;;;;;0.10;0.10;;;;;;;;;;5012520;28;20049;-91
2022/03/24 02:35:39;;;;;;;0.10;0.10;;;;;;;;;;5012531;28;20400;-92
2022/03/24 02:38:05;;;;;;;0.20;0.20;;;;;;;;;;5012880;28;20382;-91
2022/03/24 02:40:32;;;;;;;0.10;0.10;;;;;;;;;;5012512;28;20129;-92
2022/03/24 02:42:58;;;;;;;0.08;0.08;;;;;;;;;;5012415;28;20037;-92
2022/03/24 02:45:24;;;;;;;0.10;0.10;;;;;;;;;;5012469;28;20060;-93
2022/03/24 02:47:50;;;;;;;0.10;0.10;;;;;;;;;;5012667;28;20041;-94
2022/03/24 02:50:16;;;;;;;0.10;0.10;;;;;;;;;;5012899;28;20042;-92
2022/03/24 02:52:42;;;;;;;0.10;0.10;;;;;;;;;;5011931;28;20115;-93
2022/03/24 02:55:08;;;;;;;0.10;0.10;;;;;;;;;;5012767;28;20201;-93
2022/03/24 02:57:34;;;;;;;0.10;0.10;;;;;;;;;;5012610;28;20096;-93
2022/03/24 03:00:00;;;;;;;0.10;0.10;;;;;;;;;;5012759;28;20046;-93
2022/03/24 03:02:26;;;;;;;0.13;0.13;;;;;;;;;;5012412;28;20050;-93
2022/03/24 03:04:53;;;;;;;0.10;0.10;;;;;;;;;;5012941;28;20073;-93
2022/03/24 03:07:22;;;;;;;0.38;0.13;;;;;;;;;;5012824;28;20046;-94
2022/03/24 03:09:48;;;;;;;0.10;0.10;;;;;;;;;;5012523;28;20037;-93
2022/03/24 03:12:16;;;;;;;0.10;0.10;;;;;;;;;;5012670;28;20049;-93
2022/03/24 03:14:42;;;;;;;0.20;0.20;;;;;;;;;;5012578;28;20038;-93
2022/03/24 03:17:08;;;;;;;0.13;0.13;;;;;;;;;;5012753;28;20057;-94
2022/03/24 03:19:34;;;;;;;0.20;0.20;;;;;;;;;;5013066;28;20510;-93
2022/03/24 03:22:01;;;;;;;0.10;0.10;;;;;;;;;;5012742;28;20129;-94
2022/03/24 03:24:27;;;;;;;0.10;0.10;;;;;;;;;;5014749;28;20128;-93
2022/03/24 03:26:53;;;;;;;0.10;0.10;;;;;;;;;;5018185;28;20037;-95
2022/03/24 03:29:22;;;;;;;0.32;0.32;;;;;;;;;;5016971;28;20046;-94
2022/03/24 03:31:48;;;;;;;0.00;0.00;;;;;;;;;;5016611;28;20048;-95
2022/03/24 03:34:15;;;;;;;0.10;0.10;;;;;;;;;;5015341;28;20477;-93
2022/03/24 03:36:41;;;;;;;0.47;0.20;;;;;;;;;;5015795;28;20113;-95
2022/03/24 03:39:07;;;;;;;0.10;0.10;;;;;;;;;;5016185;28;20058;-92
2022/03/24 03:41:35;;;;;;;0.10;0.10;;;;;;;;;;5015710;28;20054;-92
2022/03/24 03:44:01;;;;;;;0.10;0.10;;;;;;;;;;5015930;28;20132;-94
2022/03/24 03:46:27;;;;;;;0.10;0.10;;;;;;;;;;5016110;28;20197;-94
2022/03/24 03:48:53;;;;;;;0.10;0.10;;;;;;;;;;5016102;28;20651;-95
2022/03/24 03:51:19;;;;;;;0.10;0.10;;;;;;;;;;5015789;28;20045;-93
2022/03/24 03:53:45;;;;;;;0.10;0.10;;;;;;;;;;5015747;28;20091;-93
2022/03/24 03:56:12;;;;;;;0.10;0.10;;;;;;;;;;5015190;28;20038;-93
2022/03/24 03:58:38;;;;;;;0.20;0.20;;;;;;;;;;5015875;28;20141;-93
2022/03/24 04:01:04;;;;;;;0.10;0.10;;;;;;;;;;5015625;28;20072;-94
2022/03/24 04:03:31;;;;;;;0.20;0.20;;;;;;;;;;5015966;28;20171;-94
2022/03/24 04:06:01;;;;;;;0.30;0.30;;;;;;;;;;5015662;28;20045;-96
2022/03/24 04:08:28;;;;;;;0.10;0.10;;;;;;;;;;5015637;28;20124;-95
2022/03/24 04:10:54;;;;;;;0.10;0.10;;;;;;;;;;5015654;28;20046;-92
2022/03/24 04:13:20;;;;;;;0.10;0.10;;;;;;;;;;5015993;28;20049;-93
2022/03/24 04:15:47;;;;;;;0.00;0.00;;;;;;;;;;5018729;28;20038;-93
2022/03/24 04:18:13;;;;;;;0.10;0.10;;;;;;;;;;5017610;28;20117;-95
2022/03/24 04:20:39;;;;;;;0.10;0.10;;;;;;;;;;5016707;28;20046;-95
2022/03/24 04:23:05;;;;;;;0.20;0.20;;;;;;;;;;5016166;28;20128;-95
2022/03/24 04:25:32;;;;;;;0.10;0.10;;;;;;;;;;5019177;28;20038;-94
2022/03/24 04:27:58;;;;;;;0.38;0.20;;;;;;;;;;5019732;28;20045;-95
2022/03/24 04:30:26;;;;;;;0.10;0.10;;;;;;;;;;5021945;28;20049;-93
2022/03/24 04:32:52;;;;;;;0.10;0.10;;;;;;;;;;5020532;28;20509;-93
2022/03/24 04:35:18;;;;;;;0.10;0.10;;;;;;;;;;5017567;28;20092;-93
2022/03/24 04:37:44;;;;;;;0.10;0.10;;;;;;;;;;5014790;28;20049;-93
2022/03/24 04:40:13;;;;;;;0.10;0.10;;;;;;;;;;5015471;28;20124;-93
2022/03/24 04:42:39;;;;;;;0.10;0.10;;;;;;;;;;5015319;28;20042;-92
2022/03/24 04:45:06;;;;;;;0.10;0.10;;;;;;;;;;5014974;28;20042;-93
2022/03/24 04:47:32;;;;;;;0.10;0.10;;;;;;;;;;5015363;28;20265;-94
2022/03/24 04:49:58;;;;;;;0.20;0.20;;;;;;;;;;5014664;28;20030;-92
2022/03/24 04:52:24;;;;;;;0.10;0.10;;;;;;;;;;5014464;28;20136;-93
2022/03/24 04:54:50;;;;;;;0.10;0.10;;;;;;;;;;5014131;28;20034;-93
2022/03/24 04:57:16;;;;;;;0.10;0.10;;;;;;;;;;5013930;28;20192;-94
2022/03/24 04:59:42;;;;;;;0.10;0.10;;;;;;;;;;5014319;28;20061;-93
2022/03/24 05:02:15;;;;;;;4.95;0.55;;;;;;;;;;5014420;28;20057;-94
2022/03/24 05:04:41;;;;;;;0.10;0.10;;;;;;;;;;5014604;28;20046;-94
2022/03/24 05:07:08;;;;;;;0.10;0.10;;;;;;;;;;5014442;28;20061;-94
2022/03/24 05:09:34;;;;;;;0.10;0.10;;;;;;;;;;5014275;28;20092;-92
2022/03/24 05:12:00;;;;;;;0.00;0.00;;;;;;;;;;5014476;28;20034;-94
2022/03/24 05:14:26;;;;;;;0.52;0.35;;;;;;;;;;5014271;28;20128;-94
2022/03/24 05:16:52;;;;;;;0.10;0.10;;;;;;;;;;5014615;28;20044;-95
2022/03/24 05:19:19;;;;;;;0.05;0.05;;;;;;;;;;5014605;28;20053;-94
2022/03/24 05:21:45;;;;;;;0.30;0.30;;;;;;;;;;5014489;28;20042;-93
2022/03/24 05:24:11;;;;;;;0.10;0.10;;;;;;;;;;5014089;28;20489;-93
2022/03/24 05:26:38;;;;;;;0.10;0.10;;;;;;;;;;5013928;28;20088;-93
2022/03/24 05:29:04;;;;;;;0.10;0.10;;;;;;;;;;5013901;28;20050;-93
2022/03/24 05:31:30;;;;;;;0.10;0.10;;;;;;;;;;5013970;28;20040;-94
2022/03/24 05:33:56;;;;;;;0.10;0.10;;;;;;;;;;5013666;28;20529;-93
2022/03/24 05:36:22;;;;;;;0.52;0.20;;;;;;;;;;5013778;28;20068;-93
2022/03/24 05:38:48;;;;;;;0.10;0.10;;;;;;;;;;5013066;28;20052;-92
2022/03/24 05:41:14;;;;;;;0.10;0.10;;;;;;;;;;5013402;28;20045;-95
2022/03/24 05:43:40;;;;;;;0.20;0.20;;;;;;;;;;5013451;28;20037;-93
2022/03/24 05:46:06;;;;;;;0.40;0.40;;;;;;;;;;5012690;28;20041;-92
2022/03/24 05:48:33;;;;;;;0.10;0.10;;;;;;;;;;5013825;28;20042;-93
2022/03/24 05:51:02;;;;;;;0.10;0.10;;;;;;;;;;5015532;28;20041;-94
2022/03/24 05:53:28;;;;;;;0.10;0.10;;;;;;;;;;5015281;28;20041;-96
2022/03/24 05:55:56;;;;;;;0.10;0.10;;;;;;;;;;5020522;28;20038;-94
2022/03/24 05:58:25;;;;;;;0.20;0.20;;;;;;;;;;5017803;28;20205;-94
2022/03/24 06:00:51;;;;;;;0.10;0.10;;;;;;;;;;5013775;28;20058;-93
2022/03/24 06:03:18;;;;;;;0.10;0.10;;;;;;;;;;5014911;28;20057;-94
2022/03/24 06:05:44;;;;;;;0.10;0.10;;;;;;;;;;5014273;28;20053;-93
2022/03/24 06:08:11;;;;;;;0.10;0.10;;;;;;;;;;5014487;28;20144;-94
2022/03/24 06:10:37;;;;;;;0.10;0.10;;;;;;;;;;5013651;28;20046;-91
2022/03/24 06:13:04;;;;;;;0.10;0.10;;;;;;;;;;5013124;28;20037;-95
2022/03/24 06:15:30;;;;;;;2.83;0.30;;;;;;;;;;5013953;28;20121;-91
2022/03/24 06:17:56;;;;;;;0.10;0.10;;;;;;;;;;5012863;28;20089;-92
2022/03/24 06:20:22;;;;;;;0.00;0.00;;;;;;;;;;5012205;28;20441;-91
2022/03/24 06:22:52;;;;;;;0.10;0.10;;;;;;;;;;5012999;28;20038;-93
2022/03/24 06:25:18;;;;;;;0.10;0.10;;;;;;;;;;5013028;28;20061;-92
2022/03/24 06:27:46;;;;;;;0.10;0.10;;;;;;;;;;5012906;28;20147;-92
2022/03/24 06:30:13;;;;;;;0.10;0.10;;;;;;;;;;5013172;28;20038;-92
2022/03/24 06:32:40;;;;;;;0.00;0.00;;;;;;;;;;5013274;28;20422;-92
2022/03/24 06:35:08;;;;;;;0.10;0.10;;;;;;;;;;5012731;28;20488;-92
2022/03/24 06:37:39;;;;;;;0.10;0.10;;;;;;;;;;5012880;28;20092;-92
2022/03/24 06:40:09;;;;;;;0.10;0.10;;;;;;;;;;5013734;28;20042;-93
2022/03/24 06:42:35;;;;;;;0.10;0.10;;;;;;;;;;5013271;28;20053;-92
2022/03/24 06:45:02;;;;;;;0.55;0.55;;;;;;;;;;5012865;28;20046;-92
2022/03/24 06:47:28;;;;;;;0.10;0.10;;;;;;;;;;5013046;28;20432;-93
2022/03/24 06:49:54;;;;;;;0.10;0.10;;;;;;;;;;5012851;28;20049;-91
2022/03/24 06:52:21;;;;;;;0.10;0.10;;;;;;;;;;5012550;28;20088;-92
2022/03/24 06:54:47;;;;;;;0.08;0.08;;;;;;;;;;5012376;28;20034;-92
2022/03/24 06:57:14;;;;;;;0.20;0.20;;;;;;;;;;5012239;28;20049;-92
2022/03/24 06:59:42;;;;;;;0.08;0.08;;;;;;;;;;5016045;28;20057;-92
2022/03/24 07:02:09;;;;;;;0.10;0.10;;;;;;;;;;5015911;28;20054;-93
2022/03/24 07:04:35;;;;;;;0.10;0.10;;;;;;;;;;5014028;28;20092;-91
2022/03/24 07:07:01;;;;;;;0.10;0.10;;;;;;;;;;5015424;28;20092;-91
2022/03/24 07:09:27;;;;;;;0.10;0.10;;;;;;;;;;5011692;28;20089;-90
2022/03/24 07:11:54;;;;;;;0.10;0.10;;;;;;;;;;5011857;28;20041;-91
2022/03/24 07:14:20;;;;;;;0.10;0.10;;;;;;;;;;5014013;28;20042;-92
2022/03/24 07:16:47;;;;;;;0.10;0.10;;;;;;;;;;5015002;28;20128;-90
2022/03/24 07:19:14;;;;;;;0.10;0.10;;;;;;;;;;4998978;28;20607;-91
2022/03/24 07:21:40;;;;;;;0.30;0.20;;;;;;;;;;5011239;28;20124;-89
2022/03/24 07:24:06;;;;;;;0.10;0.10;;;;;;;;;;5011233;28;20050;-89
2022/03/24 07:26:32;;;;;;;0.10;0.10;;;;;;;;;;5011282;28;20046;-90
2022/03/24 07:28:58;;;;;;;0.10;0.10;;;;;;;;;;5011366;28;20038;-92
2022/03/24 07:31:24;;;;;;;0.10;0.10;;;;;;;;;;5012502;28;20085;-93
2022/03/24 07:33:50;;;;;;;0.10;0.10;;;;;;;;;;5011347;28;20406;-89
2022/03/24 07:36:16;;;;;;;0.10;0.10;;;;;;;;;;5011106;28;20049;-91
2022/03/24 07:38:42;;;;;;;0.10;0.10;;;;;;;;;;5011776;28;20496;-90
2022/03/24 07:41:10;;;;;;;0.20;0.20;;;;;;;;;;5011026;28;20039;-95
2022/03/24 07:43:36;;;;;;;0.10;0.10;;;;;;;;;;5011213;28;20146;-90
2022/03/24 07:46:02;;;;;;;0.20;0.20;;;;;;;;;;5010996;28;20493;-92
2022/03/24 07:48:30;;;;;;;0.17;0.17;;;;;;;;;;5011665;28;20301;-95
2022/03/24 07:50:56;;;;;;;0.20;0.20;;;;;;;;;;5011740;28;20038;-96
2022/03/24 07:53:28;;;;;;;0.47;0.47;;;;;;;;;;5012397;28;20093;-93
2022/03/24 07:55:58;;;;;;;0.40;0.40;;;;;;;;;;5012382;28;20045;-93
2022/03/24 07:58:24;;;;;;;0.20;0.20;;;;;;;;;;5012500;28;20441;-93
2022/03/24 08:00:50;;;;;;;0.15;0.15;;;;;;;;;;5011682;28;20494;-93
2022/03/24 08:03:16;;;;;;;0.10;0.10;;;;;;;;;;5011942;28;20046;-92
2022/03/24 08:05:42;;;;;;;0.20;0.20;;;;;;;;;;5011905;28;20041;-89
2022/03/24 08:08:11;;;;;;;0.25;0.25;;;;;;;;;;5011132;28;20293;-90
2022/03/24 08:10:37;;;;;;;0.35;0.35;;;;;;;;;;5010312;28;20497;-91
2022/03/24 08:13:04;;;;;;;0.20;0.20;;;;;;;;;;5011852;28;20425;-91
2022/03/24 08:15:30;;;;;;;0.40;0.40;;;;;;;;;;5011196;28;20038;-92
2022/03/24 08:17:56;;;;;;;0.10;0.10;;;;;;;;;;5011295;28;20097;-90
2022/03/24 08:20:23;;;;;;;0.50;0.50;;;;;;;;;;5011523;28;20042;-91
2022/03/24 08:22:49;;;;;;;0.28;0.28;;;;;;;;;;5011209;28;20038;-91
2022/03/24 08:25:17;;;;;;;0.20;0.20;;;;;;;;;;5011296;28;20095;-89
2022/03/24 08:27:43;;;;;;;1.85;1.00;;;;;;;;;;5010363;28;20046;-90
2022/03/24 08:30:09;;;;;;;0.30;0.30;;;;;;;;;;5010296;28;20042;-91
2022/03/24 08:32:35;;;;;;;0.20;0.20;;;;;;;;;;5011383;28;20080;-91
2022/03/24 08:35:02;;;;;;;0.10;0.10;;;;;;;;;;5010834;28;20046;-90
2022/03/24 08:37:28;;;;;;;0.50;0.50;;;;;;;;;;5010911;28;20520;-91
2022/03/24 08:39:55;;;;;;;0.40;0.40;;;;;;;;;;5010464;28;20077;-92
2022/03/24 08:42:21;;;;;;;0.70;0.70;;;;;;;;;;5011054;28;20070;-92
2022/03/24 08:44:47;;;;;;;0.10;0.10;;;;;;;;;;5011230;28;21882;-91
2022/03/24 08:47:14;;;;;;;0.30;0.30;;;;;;;;;;5010911;28;20097;-91
2022/03/24 08:49:40;;;;;;;0.20;0.20;;;;;;;;;;5010392;28;20077;-92
2022/03/24 08:52:06;;;;;;;0.50;0.35;;;;;;;;;;5010148;28;20045;-91
2022/03/24 08:54:32;;;;;;;0.20;0.20;;;;;;;;;;5009958;28;20049;-90
2022/03/24 08:56:58;;;;;;;1.55;0.22;;;;;;;;;;5010323;28;20121;-91
2022/03/24 08:59:24;;;;;;;0.20;0.20;;;;;;;;;;5010319;28;20065;-90
2022/03/24 09:01:50;;;;;;;0.30;0.30;;;;;;;;;;5010354;28;20038;-90
2022/03/24 09:04:18;;;;;;;0.20;0.20;;;;;;;;;;5010219;28;20494;-91
2022/03/24 09:06:46;;;;;;;0.40;0.40;;;;;;;;;;5009709;28;20058;-91
2022/03/24 09:09:12;;;;;;;0.55;0.43;;;;;;;;;;5026194;28;20504;-90
2022/03/24 09:11:38;;;;;;;0.88;0.35;;;;;;;;;;5009841;28;20562;-90
2022/03/24 09:14:04;;;;;;;0.30;0.30;;;;;;;;;;5009921;28;20116;-90
2022/03/24 09:16:30;;;;;;;0.30;0.30;;;;;;;;;;5009488;28;20030;-88
2022/03/24 09:18:56;;;;;;;0.40;0.40;;;;;;;;;;5009980;28;20081;-92
2022/03/24 09:21:22;;;;;;;0.70;0.70;;;;;;;;;;5009769;28;20405;-89
2022/03/24 09:23:49;;;;;;;0.20;0.20;;;;;;;;;;5009777;28;20054;-90
2022/03/24 09:26:15;;;;;;;0.20;0.20;;;;;;;;;;5009291;28;20509;-90
2022/03/24 09:28:42;;;;;;;0.47;0.40;;;;;;;;;;5009314;28;20118;-91
2022/03/24 09:31:08;;;;;;;0.20;0.20;;;;;;;;;;5009057;28;20486;-90
2022/03/24 09:33:36;;;;;;;0.30;0.30;;;;;;;;;;5008953;28;20038;-90
2022/03/24 09:36:02;;;;;;;0.10;0.10;;;;;;;;;;5008752;28;20042;-91
2022/03/24 09:38:28;;;;;;;0.30;0.30;;;;;;;;;;5009123;28;20133;-90
2022/03/24 09:40:54;;;;;;;0.30;0.30;;;;;;;;;;5008878;28;20093;-89
2022/03/24 09:43:20;;;;;;;0.20;0.20;;;;;;;;;;5008935;28;20046;-90
2022/03/24 09:45:47;;;;;;;0.20;0.20;;;;;;;;;;5008466;28;20053;-89
2022/03/24 09:48:15;;;;;;;0.20;0.20;;;;;;;;;;5009008;28;20207;-92
2022/03/24 09:50:47;;;;;;;0.20;0.20;;;;;;;;;;5008116;28;20054;-90
2022/03/24 09:53:14;;;;;;;0.40;0.40;;;;;;;;;;5009079;28;20043;-89
2022/03/24 09:55:40;;;;;;;0.82;0.68;;;;;;;;;;5009259;28;20474;-91
2022/03/24 09:58:09;;;;;;;0.15;0.15;;;;;;;;;;5009363;28;20045;-92
2022/03/24 10:00:35;;;;;;;0.50;0.50;;;;;;;;;;5009065;28;20059;-96
2022/03/24 10:03:09;;;;;;;0.20;0.20;;;;;;;;;;5010564;28;20103;-96
2022/03/24 10:05:35;;;;;;;0.20;0.20;;;;;;;;;;5010469;28;20035;-95
2022/03/24 10:08:07;;;;;;;0.20;0.20;;;;;;;;;;5010001;28;20038;-95
2022/03/24 10:10:34;;;;;;;0.50;0.50;;;;;;;;;;5009607;28;20451;-95
2022/03/24 10:13:04;;;;;;;0.40;0.40;;;;;;;;;;5010062;28;20092;-94
2022/03/24 10:15:30;;;;;;;0.10;0.10;;;;;;;;;;5009441;28;20042;-93
2022/03/24 10:17:57;;;;;;;0.20;0.20;;;;;;;;;;5009418;28;20194;-93
2022/03/24 10:20:26;;;;;;;0.20;0.20;;;;;;;;;;5008996;28;20044;-92
2022/03/24 10:22:53;;;;;;;0.20;0.20;;;;;;;;;;5008451;28;20094;-87
2022/03/24 10:25:20;;;;;;;0.50;0.50;;;;;;;;;;5008219;28;20043;-88
2022/03/24 10:27:50;;;;;;;0.22;0.22;;;;;;;;;;5008382;28;20125;-92
2022/03/24 10:30:16;;;;;;;0.57;0.57;;;;;;;;;;5024919;28;20047;-89
2022/03/24 10:32:42;;;;;;;0.50;0.50;;;;;;;;;;5009803;28;20050;-90
2022/03/24 10:35:09;;;;;;;0.63;0.63;;;;;;;;;;5012704;28;20129;-90
2022/03/24 10:37:35;;;;;;;0.20;0.20;;;;;;;;;;5012314;28;20081;-91
2022/03/24 10:40:06;;;;;;;0.52;0.30;;;;;;;;;;5011828;28;20042;-89
2022/03/24 10:42:33;;;;;;;0.20;0.20;;;;;;;;;;5011594;28;20537;-89
2022/03/24 10:45:13;;;;;;;0.35;0.35;;;;;;;;;;5012374;28;20041;-88
2022/03/24 10:47:42;;;;;;;0.35;0.35;;;;;;;;;;5011982;28;20045;-89
2022/03/24 10:50:18;;;;;;;4.20;2.05;;;;;;;;;;5011901;28;20066;-88
2022/03/24 10:52:44;;;;;;;1.95;0.88;;;;;;;;;;5012057;28;20035;-92
2022/03/24 10:55:10;;;;;;;1.35;0.38;;;;;;;;;;5012983;28;20046;-94
2022/03/24 10:57:37;;;;;;;0.30;0.30;;;;;;;;;;5011087;28;20528;-89
2022/03/24 11:00:04;;;;;;;0.22;0.22;;;;;;;;;;5013615;28;20057;-90
2022/03/24 11:02:31;;;;;;;0.35;0.35;;;;;;;;;;4983514;28;20057;-90
2022/03/24 11:05:12;;;;;;;0.30;0.30;;;;;;;;;;4983077;28;20038;-91
2022/03/24 11:07:38;;;;;;;0.15;0.15;;;;;;;;;;4984625;28;20091;-92
2022/03/24 11:10:33;;;;;;;0.40;0.40;;;;;;;;;;4991284;28;20088;-94
2022/03/24 11:13:00;;;;;;;0.10;0.10;;;;;;;;;;4999105;28;20107;-93
2022/03/24 11:15:26;;;;;;;0.40;0.40;;;;;;;;;;4985471;28;20034;-91
2022/03/24 11:17:52;;;;;;;0.35;0.30;;;;;;;;;;4999006;28;20046;-90
2022/03/24 11:20:20;;;;;;;1.17;0.30;;;;;;;;;;4999283;28;20057;-91
2022/03/24 11:22:50;;;;;;;0.40;0.40;;;;;;;;;;4999777;28;20314;-91
2022/03/24 11:25:19;;;;;;;0.28;0.28;;;;;;;;;;4984527;28;20115;-91
2022/03/24 11:27:45;;;;;;;0.32;0.32;;;;;;;;;;4985562;28;20397;-91
2022/03/24 11:30:12;;;;;;;0.28;0.28;;;;;;;;;;4984342;28;20077;-92
2022/03/24 11:32:38;;;;;;;0.20;0.20;;;;;;;;;;5000170;28;20129;-93
2022/03/24 11:35:05;;;;;;;0.25;0.25;;;;;;;;;;4983598;28;20041;-92
2022/03/24 11:37:31;;;;;;;0.75;0.70;;;;;;;;;;4983452;28;20033;-92
2022/03/24 11:40:03;;;;;;;0.20;0.20;;;;;;;;;;4999460;28;20171;-94
2022/03/24 11:42:32;;;;;;;0.35;0.35;;;;;;;;;;5000076;28;20046;-92
2022/03/24 11:45:30;;;;;;;0.30;0.30;;;;;;;;;;4998373;28;20127;-92
2022/03/24 11:48:01;;;;;;;0.50;0.50;;;;;;;;;;4957752;28;20401;-91
2022/03/24 11:50:41;;;;;;;0.17;0.17;;;;;;;;;;4983087;28;20052;-90
2022/03/24 11:53:28;;;;;;;0.20;0.20;;;;;;;;;;4982594;28;20477;-90
2022/03/24 11:56:01;;;;;;;0.40;0.40;;;;;;;;;;4998419;28;20034;-91
2022/03/24 11:58:27;;;;;;;0.30;0.30;;;;;;;;;;4999275;28;20042;-91
2022/03/24 12:00:53;;;;;;;0.30;0.30;;;;;;;;;;4982622;28;20061;-93
2022/03/24 12:03:56;;;;;;;0.30;0.30;;;;;;;;;;4983117;28;20088;-91
2022/03/24 12:06:40;;;;;;;0.20;0.20;;;;;;;;;;4924567;29;20047;-92
2022/03/24 12:09:06;;;;;;;0.10;0.10;;;;;;;;;;4992938;28;20042;-91
2022/03/24 12:11:37;;;;;;;0.40;0.40;;;;;;;;;;4983008;28;20069;-93
2022/03/24 12:14:14;;;;;;;0.20;0.20;;;;;;;;;;4982567;28;20042;-92
2022/03/24 12:16:41;;;;;;;0.63;0.63;;;;;;;;;;4982314;28;20474;-92
2022/03/24 12:19:08;;;;;;;0.15;0.15;;;;;;;;;;4985375;28;20046;-94
2022/03/24 12:21:34;;;;;;;0.25;0.25;;;;;;;;;;4999073;28;20056;-91
2022/03/24 12:24:10;;;;;;;0.10;0.10;;;;;;;;;;4998512;28;20121;-92
2022/03/24 12:26:40;;;;;;;0.10;0.10;;;;;;;;;;4982044;28;20045;-92
2022/03/24 12:29:12;;;;;;;0.10;0.10;;;;;;;;;;4982493;28;20095;-90
2022/03/24 12:31:57;;;;;;;0.20;0.20;;;;;;;;;;4997930;28;20168;-92
2022/03/24 12:34:29;;;;;;;0.10;0.10;;;;;;;;;;4998684;28;20049;-93
2022/03/24 12:36:55;;;;;;;0.10;0.10;;;;;;;;;;4998233;28;20050;-92
2022/03/24 12:39:31;;;;;;;0.30;0.30;;;;;;;;;;4981789;28;20045;-92
2022/03/24 12:42:06;;;;;;;0.40;0.40;;;;;;;;;;4998206;28;20042;-92
2022/03/24 12:45:08;;;;;;;0.20;0.20;;;;;;;;;;5014816;28;20071;-91
2022/03/24 12:47:34;;;;;;;0.20;0.20;;;;;;;;;;4923191;29;20054;-92
2022/03/24 12:50:07;;;;;;;0.30;0.30;;;;;;;;;;4999275;28;20058;-93
2022/03/24 12:52:52;;;;;;;0.20;0.20;;;;;;;;;;4981672;28;20563;-90
2022/03/24 12:55:22;;;;;;;0.47;0.47;;;;;;;;;;4997131;28;20030;-93
2022/03/24 12:57:58;;;;;;;0.30;0.30;;;;;;;;;;4997873;28;20512;-92
2022/03/24 13:00:29;;;;;;;0.10;0.10;;;;;;;;;;4981062;28;20061;-92
2022/03/24 13:02:56;;;;;;;0.10;0.10;;;;;;;;;;4981326;28;20049;-91
2022/03/24 13:05:28;;;;;;;0.35;0.30;;;;;;;;;;5013922;28;20095;-92
2022/03/24 13:07:54;;;;;;;0.10;0.10;;;;;;;;;;4981464;28;20038;-92
2022/03/24 13:10:21;;;;;;;0.15;0.15;;;;;;;;;;4981435;28;20543;-91
2022/03/24 13:12:48;;;;;;;0.10;0.10;;;;;;;;;;4981067;28;20076;-91
2022/03/24 13:15:27;;;;;;;0.30;0.30;;;;;;;;;;4997242;28;20112;-93
2022/03/24 13:17:54;;;;;;;0.10;0.10;;;;;;;;;;4980610;28;20241;-89
2022/03/24 13:20:20;;;;;;;0.43;0.32;;;;;;;;;;5012230;28;20477;-90
2022/03/24 13:22:48;;;;;;;0.10;0.10;;;;;;;;;;4996934;28;20044;-89
2022/03/24 13:25:14;;;;;;;0.50;0.50;;;;;;;;;;4996292;28;20049;-89
2022/03/24 13:27:44;;;;;;;0.30;0.30;;;;;;;;;;4996273;28;20046;-90
2022/03/24 13:30:20;;;;;;;0.10;0.10;;;;;;;;;;4979513;28;20084;-90
2022/03/24 13:32:46;;;;;;;0.25;0.25;;;;;;;;;;4996021;28;20030;-90
2022/03/24 13:35:13;;;;;;;0.10;0.10;;;;;;;;;;4979452;28;20092;-90
2022/03/24 13:37:50;;;;;;;0.20;0.20;;;;;;;;;;4979549;28;20049;-89
2022/03/24 13:40:16;;;;;;;0.20;0.20;;;;;;;;;;4996219;28;20041;-90
2022/03/24 13:42:43;;;;;;;0.10;0.10;;;;;;;;;;4980301;28;20042;-89
2022/03/24 13:45:10;;;;;;;0.10;0.10;;;;;;;;;;4995960;28;20042;-88
2022/03/24 13:47:36;;;;;;;0.10;0.10;;;;;;;;;;4980988;28;20044;-89
2022/03/24 13:50:02;;;;;;;0.45;0.45;;;;;;;;;;4995357;28;20054;-90
2022/03/24 13:52:35;;;;;;;0.40;0.40;;;;;;;;;;4996012;28;20066;-90
2022/03/24 13:55:03;;;;;;;0.32;0.22;;;;;;;;;;4995806;28;20466;-90
2022/03/24 13:57:29;;;;;;;0.20;0.20;;;;;;;;;;4996367;28;20042;-90
2022/03/24 13:59:55;;;;;;;0.28;0.20;;;;;;;;;;4996095;28;20050;-91
2022/03/24 14:02:27;;;;;;;0.10;0.10;;;;;;;;;;5012371;28;20068;-90
2022/03/24 14:05:04;;;;;;;0.10;0.10;;;;;;;;;;5012018;28;20438;-90
2022/03/24 14:07:30;;;;;;;0.30;0.30;;;;;;;;;;5011406;28;20600;-91
2022/03/24 14:09:58;;;;;;;0.20;0.20;;;;;;;;;;4995913;28;20049;-90
2022/03/24 14:12:25;;;;;;;0.10;0.10;;;;;;;;;;4996163;28;20129;-91
2022/03/24 14:14:51;;;;;;;0.10;0.10;;;;;;;;;;4995724;28;20049;-91
2022/03/24 14:17:22;;;;;;;0.20;0.20;;;;;;;;;;4996261;28;20038;-88
2022/03/24 14:19:55;;;;;;;1.05;0.52;;;;;;;;;;5012018;28;20042;-90
2022/03/24 14:22:24;;;;;;;0.10;0.10;;;;;;;;;;4992558;28;20049;-91
2022/03/24 14:24:50;;;;;;;0.70;0.30;;;;;;;;;;5008647;28;20574;-91
2022/03/24 14:27:20;;;;;;;0.10;0.10;;;;;;;;;;5008642;28;20078;-91
2022/03/24 14:30:03;;;;;;;0.10;0.10;;;;;;;;;;5008782;28;20046;-90
2022/03/24 14:32:29;;;;;;;0.20;0.20;;;;;;;;;;5008255;28;20049;-88
2022/03/24 14:35:04;;;;;;;0.10;0.10;;;;;;;;;;5024675;28;20097;-89
2022/03/24 14:37:38;;;;;;;0.10;0.10;;;;;;;;;;5008013;28;20042;-89
2022/03/24 14:40:04;;;;;;;0.10;0.10;;;;;;;;;;5007934;28;20410;-89
2022/03/24 14:42:30;;;;;;;0.10;0.10;;;;;;;;;;5008205;28;20089;-88
2022/03/24 14:44:56;;;;;;;0.13;0.13;;;;;;;;;;5024420;28;20401;-89
2022/03/24 14:47:22;;;;;;;0.20;0.20;;;;;;;;;;5024624;28;20050;-88